createdAt,value
2023-02-27T00:02:45.853Z,6.30
2023-02-27T00:07:49.005Z,7.82
2023-02-27T00:12:51.723Z,6.82
2023-02-27T00:17:54.448Z,7.38
2023-02-27T00:22:57.097Z,6.80
2023-02-27T00:27:59.688Z,5.63
2023-02-27T00:33:02.610Z,5.78
2023-02-27T00:38:05.913Z,6.22
2023-02-27T00:43:08.673Z,4.80
2023-02-27T00:48:11.495Z,5.50
2023-02-27T00:53:14.072Z,4.85
2023-02-27T00:58:16.917Z,6.15
2023-02-27T01:03:19.687Z,5.80
2023-02-27T01:08:22.386Z,6.45
2023-02-27T01:13:25.056Z,7.15
2023-02-27T01:18:28.458Z,6.95
2023-02-27T01:23:31.622Z,6.47
2023-02-27T01:28:34.576Z,6.90
2023-02-27T01:33:37.227Z,7.83
2023-02-27T01:38:39.854Z,7.00
2023-02-27T01:43:57.963Z,7.32
2023-02-27T01:49:24.289Z,7.88
2023-02-27T01:54:27.281Z,8.80
2023-02-27T01:59:30.359Z,7.37
2023-02-27T02:04:39.581Z,6.70
2023-02-27T02:09:52.985Z,6.67
2023-02-27T02:14:55.754Z,8.35
2023-02-27T02:20:32.566Z,7.55
2023-02-27T02:25:55.396Z,7.50
2023-02-27T02:31:20.337Z,7.28
2023-02-27T02:36:52.129Z,9.38
2023-02-27T02:47:17.729Z,7.80
2023-02-27T02:52:20.479Z,7.23
2023-02-27T02:57:41.189Z,8.52
2023-02-27T03:02:51.010Z,7.03
2023-02-27T03:07:57.216Z,5.93
2023-02-27T03:13:09.090Z,7.90
2023-02-27T03:18:22.958Z,7.63
2023-02-27T03:23:31.801Z,7.65
2023-02-27T03:28:38.274Z,7.45
2023-02-27T03:33:51.218Z,8.67
2023-02-27T03:39:07.467Z,9.00
2023-02-27T03:44:29.018Z,8.70
2023-02-27T03:49:31.768Z,8.40
2023-02-27T03:54:39.833Z,9.13
2023-02-27T03:59:43.267Z,8.10
2023-02-27T04:04:46.754Z,9.07
2023-02-27T04:10:20.508Z,10.50
2023-02-27T04:15:41.704Z,7.72
2023-02-27T04:20:50.282Z,9.38
2023-02-27T04:26:22.509Z,9.20
2023-02-27T04:31:34.810Z,9.88
2023-02-27T04:36:48.189Z,9.02
2023-02-27T04:42:01.696Z,8.93
2023-02-27T04:47:08.510Z,8.23
2023-02-27T04:52:21.522Z,9.77
2023-02-27T04:57:32.257Z,10.20
2023-02-27T05:02:43.489Z,10.43
2023-02-27T05:07:54.662Z,10.15
2023-02-27T05:13:03.421Z,8.95
2023-02-27T05:18:12.658Z,7.83
2023-02-27T05:23:25.666Z,9.52
2023-02-27T05:28:35.206Z,8.47
2023-02-27T05:33:48.784Z,7.95
2023-02-27T05:39:00.353Z,7.57
2023-02-27T05:49:44.208Z,8.35
2023-02-27T05:55:00.134Z,9.57
2023-02-27T06:00:18.219Z,8.45
2023-02-27T06:05:20.915Z,7.13
2023-02-27T06:10:24.329Z,7.22
2023-02-27T06:15:27.675Z,7.10
2023-02-27T06:20:30.522Z,9.02
2023-02-27T06:25:33.591Z,6.30
2023-02-27T06:30:36.872Z,7.75
2023-02-27T06:35:39.852Z,10.38
2023-02-27T06:40:42.839Z,7.90
2023-02-27T06:45:45.783Z,7.57
2023-02-27T06:50:53.834Z,7.18
2023-02-27T06:55:56.478Z,7.18
2023-02-27T07:01:01.108Z,7.88
2023-02-27T07:06:04.057Z,6.60
2023-02-27T07:11:06.709Z,7.25
2023-02-27T07:16:09.420Z,10.63
2023-02-27T07:21:12.079Z,6.50
2023-02-27T07:26:14.722Z,6.90
2023-02-27T07:31:18.046Z,7.10
2023-02-27T07:36:20.765Z,6.72
2023-02-27T07:41:30.443Z,6.82
2023-02-27T07:46:36.461Z,6.68
2023-02-27T07:51:39.483Z,8.52
2023-02-27T07:56:42.165Z,6.50
2023-02-27T08:01:44.837Z,5.40
2023-02-27T08:06:47.615Z,5.68
2023-02-27T08:11:50.305Z,6.55
2023-02-27T08:16:52.995Z,6.00
2023-02-27T08:21:55.907Z,9.70
2023-02-27T08:26:58.703Z,5.68
2023-02-27T08:32:02.598Z,5.85
2023-02-27T08:37:05.337Z,6.50
2023-02-27T08:42:08.215Z,6.22
2023-02-27T08:47:11.238Z,7.60
2023-02-27T08:52:13.885Z,7.22
2023-02-27T08:57:16.497Z,6.85
2023-02-27T09:02:19.469Z,7.13
2023-02-27T09:07:22.185Z,6.03
2023-02-27T09:12:24.785Z,5.43
2023-02-27T09:17:27.473Z,6.72
2023-02-27T09:22:30.183Z,5.47
2023-02-27T09:27:32.811Z,5.22
2023-02-27T09:32:35.609Z,6.05
2023-02-27T09:37:38.465Z,4.45
2023-02-27T09:42:46.453Z,6.38
2023-02-27T09:47:54.043Z,7.70
2023-02-27T09:52:57.483Z,5.50
2023-02-27T09:58:24.570Z,6.10
2023-02-27T10:03:57.892Z,5.55
2023-02-27T10:09:37.988Z,6.05
2023-02-27T10:14:46.721Z,6.22
2023-02-27T10:19:52.006Z,5.95
2023-02-27T10:25:03.552Z,5.60
2023-02-27T10:30:29.846Z,5.95
2023-02-27T10:35:37.774Z,5.18
2023-02-27T10:40:42.088Z,5.47
2023-02-27T10:45:44.852Z,7.38
2023-02-27T10:50:52.461Z,4.18
2023-02-27T10:56:04.121Z,5.97
2023-02-27T11:01:09.713Z,5.18
2023-02-27T11:06:22.844Z,4.93
2023-02-27T11:11:28.967Z,5.13
2023-02-27T11:16:46.382Z,6.20
2023-02-27T11:22:16.406Z,4.47
2023-02-27T11:27:22.131Z,5.38
2023-02-27T11:32:26.828Z,5.10
2023-02-27T11:37:36.946Z,6.03
2023-02-27T11:42:55.827Z,6.57
2023-02-27T11:48:21.815Z,6.57
2023-02-27T11:53:42.683Z,6.68
2023-02-27T11:59:11.475Z,5.38
2023-02-27T12:04:41.706Z,5.72
2023-02-27T12:15:44.164Z,4.97
2023-02-27T12:20:59.341Z,5.10
2023-02-27T12:26:10.621Z,6.05
2023-02-27T12:31:35.004Z,4.00
2023-02-27T12:36:37.704Z,4.22
2023-02-27T12:42:07.849Z,6.72
2023-02-27T12:48:08.881Z,5.68
2023-02-27T12:53:33.029Z,5.93
2023-02-27T12:58:57.145Z,4.82
2023-02-27T13:04:15.762Z,5.22
2023-02-27T13:09:38.570Z,5.78
2023-02-27T13:15:04.218Z,6.38
2023-02-27T13:20:22.273Z,6.88
2023-02-27T13:25:25.728Z,6.57
2023-02-27T13:30:35.968Z,5.63
2023-02-27T13:35:58.034Z,6.07
2023-02-27T13:41:36.394Z,5.65
2023-02-27T13:46:39.171Z,7.75
2023-02-27T13:51:45.898Z,10.07
2023-02-27T13:57:05.360Z,8.52
2023-02-27T14:02:11.286Z,7.93
2023-02-27T14:07:21.648Z,7.23
2023-02-27T14:12:46.458Z,9.77
2023-02-27T14:17:59.631Z,7.22
2023-02-27T14:23:15.626Z,7.10
2023-02-27T14:28:56.043Z,8.20
2023-02-27T14:34:05.417Z,6.85
2023-02-27T14:39:20.779Z,8.67
2023-02-27T14:44:28.732Z,7.25
2023-02-27T14:49:35.234Z,9.05
2023-02-27T14:54:38.535Z,7.45
2023-02-27T14:59:59.882Z,7.55
2023-02-27T15:05:02.391Z,7.82
2023-02-27T15:10:11.101Z,8.10
2023-02-27T15:15:21.919Z,7.30
2023-02-27T15:20:30.919Z,7.60
2023-02-27T15:25:40.058Z,7.78
2023-02-27T15:30:47.649Z,8.43
2023-02-27T15:35:50.496Z,7.88
2023-02-27T15:40:53.834Z,6.38
2023-02-27T15:45:58.443Z,7.72
2023-02-27T15:51:03.989Z,7.93
2023-02-27T15:56:12.152Z,10.07
2023-02-27T16:01:21.062Z,7.60
2023-02-27T16:06:31.035Z,9.50
2023-02-27T16:11:37.509Z,7.80
2023-02-27T16:16:40.224Z,7.07
2023-02-27T16:22:07.108Z,8.17
2023-02-27T16:27:30.120Z,8.03
2023-02-27T16:32:41.600Z,10.20
2023-02-27T16:37:46.017Z,8.00
2023-02-27T16:42:48.920Z,7.95
2023-02-27T16:47:54.630Z,6.20
2023-02-27T16:52:57.648Z,6.87
2023-02-27T16:58:00.293Z,8.27
2023-02-27T17:03:05.649Z,6.57
2023-02-27T17:08:10.666Z,6.38
2023-02-27T17:13:14.151Z,5.03
2023-02-27T17:18:16.864Z,4.50
2023-02-27T17:23:19.992Z,5.90
2023-02-27T17:28:23.741Z,4.87
2023-02-27T17:33:26.528Z,5.13
2023-02-27T17:38:29.218Z,5.43
2023-02-27T17:43:31.914Z,5.80
2023-02-27T17:48:35.691Z,5.40
2023-02-27T17:53:38.855Z,5.60
2023-02-27T17:58:45.522Z,6.47
2023-02-27T18:03:49.407Z,5.07
2023-02-27T18:08:52.561Z,7.40
2023-02-27T18:13:55.358Z,7.13
2023-02-27T18:18:58.006Z,7.07
2023-02-27T18:24:01.470Z,6.10
2023-02-27T18:29:07.788Z,8.70
2023-02-27T18:34:11.304Z,6.80
2023-02-27T18:39:14.779Z,8.53
2023-02-27T18:44:17.702Z,7.23
2023-02-27T18:49:20.392Z,7.90
2023-02-27T18:54:23.094Z,6.77
2023-02-27T18:59:25.710Z,5.97
2023-02-27T19:04:31.628Z,7.27
2023-02-27T19:09:34.748Z,5.40
2023-02-27T19:14:38.747Z,5.70
2023-02-27T19:19:41.864Z,7.10
2023-02-27T19:24:48.188Z,6.30
2023-02-27T19:29:51.714Z,6.13
2023-02-27T19:34:54.340Z,6.23
2023-02-27T19:39:57.727Z,6.50
2023-02-27T19:45:00.531Z,6.53
2023-02-27T19:50:05.149Z,6.47
2023-02-27T19:55:08.277Z,6.53
2023-02-27T20:00:13.433Z,6.10
2023-02-27T20:05:16.139Z,6.97
2023-02-27T20:10:19.559Z,6.67
2023-02-27T20:15:22.236Z,6.57
2023-02-27T20:20:24.933Z,6.73
2023-02-27T20:25:29.764Z,6.93
2023-02-27T20:30:32.632Z,6.37
2023-02-27T20:35:38.745Z,7.70
2023-02-27T20:40:41.433Z,7.63
2023-02-27T20:45:44.044Z,7.03
2023-02-27T20:50:46.920Z,8.07
2023-02-27T20:55:49.954Z,5.83
2023-02-27T21:00:52.648Z,6.07
2023-02-27T21:05:58.306Z,10.33
2023-02-27T21:11:16.442Z,7.40
2023-02-27T21:16:19.157Z,7.07
2023-02-27T21:21:28.599Z,6.97
2023-02-27T21:26:38.073Z,7.70
2023-02-27T21:31:45.242Z,6.63
2023-02-27T21:36:48.407Z,7.70
2023-02-27T21:41:50.984Z,8.03
2023-02-27T21:46:54.517Z,7.23
2023-02-27T21:51:57.346Z,8.30
2023-02-27T21:57:02.592Z,7.87
2023-02-27T22:02:05.830Z,7.47
2023-02-27T22:07:11.079Z,7.97
2023-02-27T22:12:15.872Z,7.93
2023-02-27T22:17:18.729Z,7.17
2023-02-27T22:22:21.386Z,7.87
2023-02-27T22:27:24.096Z,8.57
2023-02-27T22:32:26.774Z,9.90
2023-02-27T22:37:29.404Z,9.23
2023-02-27T22:42:31.962Z,8.43
2023-02-27T22:47:34.718Z,8.57
2023-02-27T22:52:37.895Z,9.17
2023-02-27T22:57:40.725Z,8.00
2023-02-27T23:02:43.412Z,11.27
2023-02-27T23:07:47.256Z,12.30
2023-02-27T23:12:49.941Z,11.87
2023-02-27T23:17:58.272Z,9.17
2023-02-27T23:23:01.281Z,7.87
2023-02-27T23:28:05.376Z,9.07
2023-02-27T23:33:07.990Z,8.50
2023-02-27T23:38:10.656Z,8.93
2023-02-27T23:43:32.776Z,8.13
2023-02-27T23:48:35.691Z,9.00
2023-02-27T23:53:40.433Z,9.47
2023-02-27T23:58:43.861Z,9.17
